createdAt,value
2023-02-11T00:00:33.795Z,-1.54
2023-02-11T00:03:01.047Z,-1.46
2023-02-11T00:05:29.569Z,-1.38
2023-02-11T00:07:57.172Z,-1.33
2023-02-11T00:10:24.355Z,-1.25
2023-02-11T00:12:51.544Z,-1.25
2023-02-11T00:15:18.708Z,-1.25
2023-02-11T00:17:45.856Z,-1.21
2023-02-11T00:20:13.048Z,-1.20
2023-02-11T00:22:41.641Z,-1.15
2023-02-11T00:25:08.815Z,-1.13
2023-02-11T00:27:36.655Z,-1.09
2023-02-11T00:30:04.468Z,-1.12
2023-02-11T00:32:31.657Z,-1.18
2023-02-11T00:34:58.842Z,-1.22
2023-02-11T00:37:26.075Z,-1.19
2023-02-11T00:39:54.824Z,-1.21
2023-02-11T00:42:22.007Z,-1.12
2023-02-11T00:44:49.191Z,-1.05
2023-02-11T00:47:17.425Z,-0.96
2023-02-11T00:49:44.634Z,-0.95
2023-02-11T00:52:11.788Z,-0.83
2023-02-11T00:54:38.962Z,-0.80
2023-02-11T00:57:08.618Z,-0.72
2023-02-11T00:59:35.966Z,-0.68
2023-02-11T01:02:03.388Z,-0.58
2023-02-11T01:04:30.585Z,-0.49
2023-02-11T01:06:57.797Z,-0.42
2023-02-11T01:09:26.052Z,-0.34
2023-02-11T01:11:53.254Z,-0.28
2023-02-11T01:14:21.794Z,-0.18
2023-02-11T01:16:51.616Z,-0.08
2023-02-11T01:19:20.621Z,-0.02
2023-02-11T01:21:47.842Z,0.08
2023-02-11T01:24:15.047Z,0.15
2023-02-11T01:26:44.707Z,0.22
2023-02-11T01:29:11.849Z,0.21
2023-02-11T01:31:40.538Z,0.20
2023-02-11T01:34:07.761Z,0.18
2023-02-11T01:36:37.333Z,0.15
2023-02-11T01:39:04.557Z,0.14
2023-02-11T01:41:31.952Z,0.14
2023-02-11T01:43:59.325Z,0.12
2023-02-11T01:46:31.722Z,0.15
2023-02-11T01:49:04.627Z,0.14
2023-02-11T01:51:37.333Z,0.18
2023-02-11T01:54:07.078Z,0.15
2023-02-11T01:56:37.130Z,0.11
2023-02-11T01:59:11.165Z,0.07
2023-02-11T02:01:41.514Z,0.11
2023-02-11T02:04:11.463Z,0.03
2023-02-11T02:06:46.040Z,0.02
2023-02-11T02:09:21.326Z,0.01
2023-02-11T02:11:48.867Z,0.02
2023-02-11T02:14:16.097Z,0.07
2023-02-11T02:16:44.564Z,0.10
2023-02-11T02:19:47.590Z,0.13
2023-02-11T02:22:42.969Z,0.20
2023-02-11T02:25:27.612Z,0.28
2023-02-11T02:28:06.908Z,0.32
2023-02-11T02:31:00.984Z,0.37
2023-02-11T02:33:37.459Z,0.40
2023-02-11T02:36:14.297Z,0.42
2023-02-11T02:38:48.585Z,0.48
2023-02-11T02:41:19.137Z,0.50
2023-02-11T02:43:48.994Z,0.53
2023-02-11T02:46:18.520Z,0.58
2023-02-11T02:48:48.373Z,0.52
2023-02-11T02:51:36.138Z,0.59
2023-02-11T02:54:23.650Z,0.56
2023-02-11T02:56:56.062Z,0.53
2023-02-11T02:59:41.123Z,0.52
2023-02-11T03:02:17.751Z,0.51
2023-02-11T03:04:52.465Z,0.51
2023-02-11T03:07:25.430Z,0.52
2023-02-11T03:09:59.233Z,0.52
2023-02-11T03:12:29.911Z,0.47
2023-02-11T03:14:59.247Z,0.53
2023-02-11T03:17:28.458Z,0.58
2023-02-11T03:19:58.391Z,0.58
2023-02-11T03:22:30.639Z,0.62
2023-02-11T03:24:57.921Z,0.62
2023-02-11T03:27:28.808Z,0.66
2023-02-11T03:30:05.295Z,0.64
2023-02-11T03:32:36.618Z,0.68
2023-02-11T03:35:11.588Z,0.64
2023-02-11T03:37:43.185Z,0.64
2023-02-11T03:40:13.531Z,0.65
2023-02-11T03:42:45.818Z,0.61
2023-02-11T03:45:17.840Z,0.58
2023-02-11T03:47:50.178Z,0.57
2023-02-11T03:50:20.862Z,0.61
2023-02-11T03:52:50.145Z,0.59
2023-02-11T03:55:20.602Z,0.62
2023-02-11T03:57:47.938Z,0.68
2023-02-11T04:00:15.765Z,0.69
2023-02-11T04:02:43.372Z,0.69
2023-02-11T04:05:13.673Z,0.72
2023-02-11T04:07:42.167Z,0.76
2023-02-11T04:10:11.278Z,0.76
2023-02-11T04:12:38.458Z,0.76
2023-02-11T04:15:06.496Z,0.77
2023-02-11T04:17:33.738Z,0.76
2023-02-11T04:20:00.983Z,0.78
2023-02-11T04:22:28.149Z,0.80
2023-02-11T04:24:56.870Z,0.80
2023-02-11T04:27:24.012Z,0.73
2023-02-11T04:29:51.310Z,0.77
2023-02-11T04:32:18.514Z,0.81
2023-02-11T04:34:45.669Z,0.82
2023-02-11T04:37:13.058Z,0.84
2023-02-11T04:39:40.310Z,0.87
2023-02-11T04:42:08.889Z,0.88
2023-02-11T04:44:36.066Z,0.91
2023-02-11T04:47:03.504Z,0.93
2023-02-11T04:49:30.947Z,0.99
2023-02-11T04:51:58.103Z,0.99
2023-02-11T04:54:25.298Z,1.02
2023-02-11T04:56:52.404Z,1.04
2023-02-11T04:59:20.944Z,1.05
2023-02-11T05:01:48.112Z,1.08
2023-02-11T05:04:15.346Z,1.06
2023-02-11T05:06:42.537Z,0.99
2023-02-11T05:09:11.624Z,0.89
2023-02-11T05:11:38.911Z,0.87
2023-02-11T05:14:06.565Z,0.93
2023-02-11T05:16:35.190Z,0.94
2023-02-11T05:19:02.416Z,0.93
2023-02-11T05:21:29.828Z,0.91
2023-02-11T05:23:57.061Z,0.92
2023-02-11T05:26:24.604Z,0.90
2023-02-11T05:28:51.872Z,0.90
2023-02-11T05:31:19.118Z,0.95
2023-02-11T05:33:47.733Z,0.95
2023-02-11T05:36:14.936Z,0.95
2023-02-11T05:38:42.882Z,0.97
2023-02-11T05:41:10.968Z,0.99
2023-02-11T05:43:38.456Z,0.97
2023-02-11T05:46:05.966Z,1.01
2023-02-11T05:48:33.259Z,0.97
2023-02-11T05:51:01.779Z,1.02
2023-02-11T05:53:28.997Z,0.98
2023-02-11T05:55:56.133Z,0.97
2023-02-11T05:58:23.331Z,0.97
2023-02-11T06:00:50.442Z,0.98
2023-02-11T06:03:17.620Z,0.98
2023-02-11T06:05:44.963Z,1.01
2023-02-11T06:08:13.453Z,1.01
2023-02-11T06:10:40.642Z,1.00
2023-02-11T06:13:07.918Z,0.98
2023-02-11T06:15:35.059Z,0.98
2023-02-11T06:18:02.289Z,0.97
2023-02-11T06:20:29.469Z,0.90
2023-02-11T06:22:56.681Z,0.83
2023-02-11T06:25:25.220Z,0.71
2023-02-11T06:27:52.378Z,0.72
2023-02-11T06:30:19.636Z,0.62
2023-02-11T06:32:47.058Z,0.60
2023-02-11T06:35:14.618Z,0.57
2023-02-11T06:37:42.185Z,0.52
2023-02-11T06:40:10.381Z,0.52
2023-02-11T06:42:39.471Z,0.59
2023-02-11T06:45:07.950Z,0.60
2023-02-11T06:47:35.324Z,0.63
2023-02-11T06:50:02.814Z,0.64
2023-02-11T06:52:29.979Z,0.70
2023-02-11T06:54:57.175Z,0.74
2023-02-11T06:57:24.317Z,0.73
2023-02-11T06:59:52.950Z,0.78
2023-02-11T07:02:21.157Z,0.82
2023-02-11T07:04:48.733Z,0.82
2023-02-11T07:07:15.938Z,0.86
2023-02-11T07:09:43.354Z,0.89
2023-02-11T07:12:10.748Z,0.97
2023-02-11T07:14:37.967Z,0.97
2023-02-11T07:17:06.492Z,1.04
2023-02-11T07:19:33.651Z,1.07
2023-02-11T07:22:00.831Z,1.13
2023-02-11T07:24:27.998Z,1.18
2023-02-11T07:26:55.140Z,1.24
2023-02-11T07:29:22.334Z,1.31
2023-02-11T07:31:49.629Z,1.36
2023-02-11T07:34:18.211Z,1.45
2023-02-11T07:36:45.407Z,1.54
2023-02-11T07:39:12.578Z,1.59
2023-02-11T07:41:39.740Z,1.67
2023-02-11T07:44:07.432Z,1.74
2023-02-11T07:46:34.698Z,1.79
2023-02-11T07:49:01.946Z,1.85
2023-02-11T07:51:31.219Z,1.90
2023-02-11T07:54:00.007Z,1.94
2023-02-11T07:56:28.373Z,1.98
2023-02-11T07:58:56.350Z,2.07
2023-02-11T08:01:25.663Z,2.08
2023-02-11T08:03:53.196Z,2.14
2023-02-11T08:06:22.540Z,2.24
2023-02-11T08:08:51.717Z,2.32
2023-02-11T08:11:22.538Z,2.33
2023-02-11T08:13:50.011Z,2.39
2023-02-11T08:16:19.641Z,2.47
2023-02-11T08:18:47.520Z,2.56
2023-02-11T08:21:14.719Z,2.67
2023-02-11T08:23:44.001Z,2.77
2023-02-11T08:26:18.420Z,2.86
2023-02-11T08:28:47.246Z,3.01
2023-02-11T08:31:16.484Z,2.99
2023-02-11T08:33:43.864Z,3.09
2023-02-11T08:36:12.878Z,3.17
2023-02-11T08:38:40.497Z,3.24
2023-02-11T08:41:08.065Z,3.24
2023-02-11T08:43:37.490Z,3.29
2023-02-11T08:46:05.107Z,3.32
2023-02-11T08:48:32.382Z,3.50
2023-02-11T08:50:59.639Z,3.68
2023-02-11T08:53:26.941Z,3.83
2023-02-11T08:55:55.322Z,3.99
2023-02-11T08:58:22.845Z,4.14
2023-02-11T09:00:51.712Z,4.24
2023-02-11T09:03:18.987Z,4.36
2023-02-11T09:05:48.291Z,4.44
2023-02-11T09:08:16.172Z,4.53
2023-02-11T09:10:43.385Z,4.63
2023-02-11T09:13:10.629Z,4.80
2023-02-11T09:15:37.876Z,4.88
2023-02-11T09:18:06.442Z,4.91
2023-02-11T09:20:33.592Z,4.91
2023-02-11T09:23:00.744Z,5.04
2023-02-11T09:25:27.893Z,4.80
2023-02-11T09:27:55.066Z,5.04
2023-02-11T09:30:22.487Z,4.98
2023-02-11T09:32:49.634Z,4.87
2023-02-11T09:35:18.254Z,4.95
2023-02-11T09:37:45.407Z,4.85
2023-02-11T09:40:14.292Z,4.76
2023-02-11T09:42:46.958Z,4.97
2023-02-11T09:45:19.338Z,4.93
2023-02-11T09:47:50.808Z,4.99
2023-02-11T09:50:23.666Z,4.96
2023-02-11T09:52:56.654Z,4.84
2023-02-11T09:55:28.608Z,4.87
2023-02-11T09:57:56.713Z,4.82
2023-02-11T10:00:28.342Z,5.02
2023-02-11T10:03:08.633Z,5.06
2023-02-11T10:05:50.912Z,5.14
2023-02-11T10:08:27.983Z,5.07
2023-02-11T10:11:04.023Z,5.36
2023-02-11T10:13:47.743Z,5.51
2023-02-11T10:16:29.630Z,5.58
2023-02-11T10:19:13.169Z,5.70
2023-02-11T10:21:51.477Z,5.82
2023-02-11T10:24:19.138Z,5.84
2023-02-11T10:26:46.646Z,5.90
2023-02-11T10:29:27.533Z,5.89
2023-02-11T10:31:57.254Z,5.93
2023-02-11T10:34:25.416Z,6.15
2023-02-11T10:36:53.931Z,6.07
2023-02-11T10:39:23.169Z,6.37
2023-02-11T10:41:53.770Z,6.36
2023-02-11T10:44:26.337Z,6.50
2023-02-11T10:46:54.491Z,6.68
2023-02-11T10:49:35.179Z,6.66
2023-02-11T10:52:15.970Z,6.66
2023-02-11T10:54:55.897Z,6.73
2023-02-11T10:57:28.103Z,6.82
2023-02-11T10:59:59.403Z,6.92
2023-02-11T11:02:29.894Z,6.83
2023-02-11T11:04:58.704Z,6.96
2023-02-11T11:07:29.465Z,6.94
2023-02-11T11:10:00.002Z,6.85
2023-02-11T11:12:31.127Z,6.54
2023-02-11T11:15:01.020Z,6.62
2023-02-11T11:17:28.610Z,6.59
2023-02-11T11:20:14.409Z,6.35
2023-02-11T11:22:43.576Z,6.35
2023-02-11T11:25:22.268Z,6.51
2023-02-11T11:27:49.685Z,6.42
2023-02-11T11:30:17.430Z,6.39
2023-02-11T11:32:45.144Z,6.36
2023-02-11T11:35:24.080Z,6.15
2023-02-11T11:37:56.720Z,6.30
2023-02-11T11:40:25.845Z,6.17
2023-02-11T11:43:15.187Z,6.26
2023-02-11T11:45:54.055Z,6.32
2023-02-11T11:48:24.936Z,6.37
2023-02-11T11:50:54.742Z,6.16
2023-02-11T11:53:29.051Z,6.18
2023-02-11T11:56:02.870Z,6.07
2023-02-11T11:58:31.893Z,6.28
2023-02-11T12:01:10.291Z,6.23
2023-02-11T12:04:10.822Z,6.13
2023-02-11T12:06:44.904Z,6.30
2023-02-11T12:09:23.343Z,6.33
2023-02-11T12:12:20.161Z,6.20
2023-02-11T12:14:59.703Z,6.16
2023-02-11T12:17:49.020Z,6.09
2023-02-11T12:20:31.854Z,6.14
2023-02-11T12:23:12.837Z,6.23
2023-02-11T12:25:46.403Z,5.95
2023-02-11T12:28:27.235Z,5.59
2023-02-11T12:31:06.409Z,5.59
2023-02-11T12:34:12.138Z,5.56
2023-02-11T12:36:52.153Z,5.74
2023-02-11T12:39:32.468Z,5.85
2023-02-11T12:42:24.377Z,5.76
2023-02-11T12:45:07.558Z,5.86
2023-02-11T12:47:47.237Z,5.90
2023-02-11T12:50:22.319Z,6.08
2023-02-11T12:53:02.578Z,5.94
2023-02-11T12:55:35.854Z,5.88
2023-02-11T12:58:05.254Z,5.90
2023-02-11T13:00:43.284Z,5.96
2023-02-11T13:03:14.975Z,6.11
2023-02-11T13:05:46.779Z,5.97
2023-02-11T13:08:15.499Z,6.05
2023-02-11T13:10:47.257Z,5.99
2023-02-11T13:13:19.078Z,5.98
2023-02-11T13:15:50.883Z,6.09
2023-02-11T13:18:29.258Z,6.00
2023-02-11T13:21:08.855Z,6.07
2023-02-11T13:23:41.559Z,6.02
2023-02-11T13:26:16.324Z,5.88
2023-02-11T13:28:51.738Z,5.91
2023-02-11T13:31:19.280Z,5.71
2023-02-11T13:33:46.901Z,5.68
2023-02-11T13:36:23.114Z,5.81
2023-02-11T13:39:03.055Z,5.86
2023-02-11T13:41:33.244Z,5.89
2023-02-11T13:44:05.955Z,5.84
2023-02-11T13:46:55.307Z,5.80
2023-02-11T13:49:25.632Z,5.84
2023-02-11T13:51:54.338Z,5.84
2023-02-11T13:54:26.394Z,5.86
2023-02-11T13:57:35.012Z,5.81
2023-02-11T14:00:30.665Z,5.97
2023-02-11T14:03:28.780Z,5.95
2023-02-11T14:06:12.823Z,5.75
2023-02-11T14:08:59.397Z,5.81
2023-02-11T14:11:48.695Z,5.84
2023-02-11T14:14:26.090Z,5.84
2023-02-11T14:17:18.653Z,5.81
2023-02-11T14:19:47.712Z,5.88
2023-02-11T14:22:18.093Z,5.93
2023-02-11T14:24:49.269Z,5.98
2023-02-11T14:27:23.737Z,5.95
2023-02-11T14:30:07.933Z,6.01
2023-02-11T14:32:51.355Z,6.02
2023-02-11T14:35:27.557Z,6.10
2023-02-11T14:38:02.255Z,6.05
2023-02-11T14:40:33.897Z,6.04
2023-02-11T14:43:08.082Z,6.08
2023-02-11T14:45:36.764Z,6.04
2023-02-11T14:48:14.162Z,6.05
2023-02-11T14:50:45.387Z,6.08
2023-02-11T14:53:16.265Z,6.02
2023-02-11T14:55:47.708Z,6.03
2023-02-11T14:58:17.613Z,5.94
2023-02-11T15:00:50.508Z,5.95
2023-02-11T15:03:34.176Z,5.96
2023-02-11T15:06:05.052Z,5.93
2023-02-11T15:08:35.818Z,5.94
2023-02-11T15:11:08.024Z,5.88
2023-02-11T15:13:35.351Z,5.82
2023-02-11T15:16:07.015Z,5.86
2023-02-11T15:18:40.292Z,5.77
2023-02-11T15:21:08.245Z,5.82
2023-02-11T15:23:35.810Z,5.81
2023-02-11T15:26:12.038Z,5.80
2023-02-11T15:28:39.351Z,5.72
2023-02-11T15:31:14.914Z,5.64
2023-02-11T15:33:43.589Z,5.63
2023-02-11T15:36:12.138Z,5.60
2023-02-11T15:38:39.430Z,5.59
2023-02-11T15:41:07.229Z,5.60
2023-02-11T15:43:42.248Z,5.58
2023-02-11T15:46:12.960Z,5.56
2023-02-11T15:48:45.249Z,5.60
2023-02-11T15:51:20.152Z,5.48
2023-02-11T15:53:50.279Z,5.39
2023-02-11T15:56:22.373Z,5.40
2023-02-11T15:58:51.811Z,5.44
2023-02-11T16:01:19.658Z,5.37
2023-02-11T16:03:50.547Z,5.44
2023-02-11T16:06:20.776Z,5.41
2023-02-11T16:08:59.808Z,5.38
2023-02-11T16:11:29.212Z,5.42
2023-02-11T16:13:56.979Z,5.34
2023-02-11T16:16:26.416Z,5.38
2023-02-11T16:19:05.792Z,5.34
2023-02-11T16:21:35.510Z,5.39
2023-02-11T16:24:03.078Z,5.35
2023-02-11T16:26:34.425Z,5.36
2023-02-11T16:29:11.662Z,5.37
2023-02-11T16:31:42.142Z,5.33
2023-02-11T16:34:16.650Z,5.33
2023-02-11T16:36:44.519Z,5.28
2023-02-11T16:39:11.859Z,5.20
2023-02-11T16:41:39.022Z,5.13
2023-02-11T16:44:06.235Z,5.14
2023-02-11T16:46:34.061Z,5.13
2023-02-11T16:49:09.745Z,5.13
2023-02-11T16:51:40.875Z,5.08
2023-02-11T16:54:13.588Z,5.05
2023-02-11T16:56:40.773Z,5.03
2023-02-11T16:59:08.011Z,5.05
2023-02-11T17:01:35.705Z,5.02
2023-02-11T17:04:03.325Z,4.95
2023-02-11T17:06:30.989Z,4.96
2023-02-11T17:08:59.872Z,4.93
2023-02-11T17:11:27.091Z,4.89
2023-02-11T17:13:54.228Z,4.78
2023-02-11T17:16:23.092Z,4.75
2023-02-11T17:18:50.716Z,4.66
2023-02-11T17:21:18.644Z,4.63
2023-02-11T17:23:45.853Z,4.67
2023-02-11T17:26:14.383Z,4.61
2023-02-11T17:28:41.517Z,4.59
2023-02-11T17:31:09.144Z,4.62
2023-02-11T17:33:36.825Z,4.65
2023-02-11T17:36:05.549Z,4.67
2023-02-11T17:38:33.200Z,4.68
2023-02-11T17:41:01.560Z,4.72
2023-02-11T17:43:30.817Z,4.75
2023-02-11T17:45:58.484Z,4.79
2023-02-11T17:48:25.716Z,4.80
2023-02-11T17:50:52.884Z,4.79
2023-02-11T17:53:20.049Z,4.77
2023-02-11T17:55:47.177Z,4.79
2023-02-11T17:58:14.443Z,4.80
2023-02-11T18:00:42.998Z,4.81
2023-02-11T18:03:10.216Z,4.80
2023-02-11T18:05:37.813Z,4.80
2023-02-11T18:08:07.055Z,4.81
2023-02-11T18:10:34.400Z,4.82
2023-02-11T18:13:01.739Z,4.82
2023-02-11T18:15:29.023Z,4.77
2023-02-11T18:17:57.556Z,4.76
2023-02-11T18:20:24.733Z,4.72
2023-02-11T18:22:51.880Z,4.68
2023-02-11T18:25:19.334Z,4.68
2023-02-11T18:27:46.531Z,4.71
2023-02-11T18:30:16.089Z,4.65
2023-02-11T18:32:43.286Z,4.65
2023-02-11T18:35:14.719Z,4.67
2023-02-11T18:37:42.723Z,4.64
2023-02-11T18:40:11.291Z,4.67
2023-02-11T18:42:38.843Z,4.68
2023-02-11T18:45:06.849Z,4.63
2023-02-11T18:47:34.012Z,4.61
2023-02-11T18:50:01.184Z,4.60
2023-02-11T18:52:30.512Z,4.59
2023-02-11T18:54:57.812Z,4.60
2023-02-11T18:57:25.129Z,4.52
2023-02-11T18:59:52.353Z,4.54
2023-02-11T19:02:19.607Z,4.59
2023-02-11T19:04:46.838Z,4.61
2023-02-11T19:07:14.066Z,4.62
2023-02-11T19:09:42.698Z,4.65
2023-02-11T19:12:09.912Z,4.64
2023-02-11T19:14:37.236Z,4.60
2023-02-11T19:17:06.753Z,4.55
2023-02-11T19:19:35.813Z,4.55
2023-02-11T19:22:04.201Z,4.59
2023-02-11T19:24:31.875Z,4.49
2023-02-11T19:27:01.860Z,4.52
2023-02-11T19:29:30.192Z,4.51
2023-02-11T19:31:57.436Z,4.50
2023-02-11T19:34:25.039Z,4.45
2023-02-11T19:36:52.358Z,4.51
2023-02-11T19:39:20.034Z,4.52
2023-02-11T19:41:47.247Z,4.56
2023-02-11T19:44:15.979Z,4.55
2023-02-11T19:46:43.754Z,4.60
2023-02-11T19:49:14.105Z,4.59
2023-02-11T19:51:41.392Z,4.58
2023-02-11T19:54:08.593Z,4.60
2023-02-11T19:56:35.753Z,4.56
2023-02-11T19:59:03.962Z,4.54
2023-02-11T20:01:32.563Z,4.52
2023-02-11T20:03:59.751Z,4.52
2023-02-11T20:06:29.179Z,4.53
2023-02-11T20:08:58.808Z,4.57
2023-02-11T20:11:28.374Z,4.58
2023-02-11T20:13:55.552Z,4.59
2023-02-11T20:16:36.853Z,4.59
2023-02-11T20:19:12.893Z,4.59
2023-02-11T20:21:40.368Z,4.57
2023-02-11T20:24:07.627Z,4.54
2023-02-11T20:26:34.824Z,4.50
2023-02-11T20:29:02.471Z,4.50
2023-02-11T20:31:30.757Z,4.51
2023-02-11T20:33:58.234Z,4.46
2023-02-11T20:36:29.156Z,4.47
2023-02-11T20:38:56.756Z,4.43
2023-02-11T20:41:25.968Z,4.45
2023-02-11T20:43:54.871Z,4.49
2023-02-11T20:46:25.093Z,4.47
2023-02-11T20:48:54.188Z,4.51
2023-02-11T20:51:28.853Z,4.54
2023-02-11T20:53:56.481Z,4.51
2023-02-11T20:56:25.870Z,4.51
2023-02-11T20:58:53.336Z,4.52
2023-02-11T21:01:22.627Z,4.52
2023-02-11T21:03:52.725Z,4.52
2023-02-11T21:06:20.994Z,4.51
2023-02-11T21:08:49.555Z,4.49
2023-02-11T21:11:17.170Z,4.43
2023-02-11T21:13:44.370Z,4.49
2023-02-11T21:16:14.723Z,4.47
2023-02-11T21:18:42.022Z,4.47
2023-02-11T21:21:09.406Z,4.46
2023-02-11T21:23:36.571Z,4.45
2023-02-11T21:26:05.887Z,4.40
2023-02-11T21:28:33.876Z,4.38
2023-02-11T21:31:01.787Z,4.36
2023-02-11T21:33:30.218Z,4.34
2023-02-11T21:35:58.792Z,4.28
2023-02-11T21:38:27.027Z,4.26
2023-02-11T21:40:54.902Z,4.27
2023-02-11T21:43:23.418Z,4.25
2023-02-11T21:45:51.370Z,4.25
2023-02-11T21:48:18.888Z,4.24
2023-02-11T21:50:47.311Z,4.20
2023-02-11T21:53:14.824Z,4.11
2023-02-11T21:55:42.243Z,4.07
2023-02-11T21:58:10.668Z,4.06
2023-02-11T22:00:39.788Z,4.06
2023-02-11T22:03:06.945Z,3.98
2023-02-11T22:05:34.237Z,3.98
2023-02-11T22:08:01.381Z,4.00
2023-02-11T22:10:28.533Z,4.00
2023-02-11T22:12:55.696Z,4.03
2023-02-11T22:15:22.909Z,4.00
2023-02-11T22:17:51.471Z,3.97
2023-02-11T22:20:18.812Z,3.96
2023-02-11T22:22:45.961Z,3.95
2023-02-11T22:25:13.113Z,3.99
2023-02-11T22:27:40.301Z,3.99
2023-02-11T22:30:08.819Z,4.00
2023-02-11T22:32:36.133Z,4.05
2023-02-11T22:35:05.049Z,4.02
2023-02-11T22:37:32.204Z,4.05
2023-02-11T22:39:59.441Z,4.10
2023-02-11T22:42:26.590Z,4.08
2023-02-11T22:44:53.768Z,4.05
2023-02-11T22:47:20.930Z,4.01
2023-02-11T22:49:48.052Z,4.05
2023-02-11T22:52:16.737Z,4.06
2023-02-11T22:54:44.170Z,4.08
2023-02-11T22:57:11.335Z,4.09
2023-02-11T22:59:38.491Z,4.04
2023-02-11T23:02:05.831Z,4.00
2023-02-11T23:04:33.050Z,4.00
2023-02-11T23:07:00.229Z,4.00
2023-02-11T23:09:28.782Z,3.97
2023-02-11T23:11:55.916Z,3.98
2023-02-11T23:14:23.074Z,4.01
2023-02-11T23:16:50.660Z,3.99
2023-02-11T23:19:17.893Z,3.92
2023-02-11T23:21:45.067Z,3.89
2023-02-11T23:24:14.244Z,3.94
2023-02-11T23:26:43.309Z,3.98
2023-02-11T23:29:11.723Z,3.99
2023-02-11T23:31:41.857Z,3.95
2023-02-11T23:34:09.866Z,4.00
2023-02-11T23:36:37.478Z,3.99
2023-02-11T23:39:04.976Z,3.99
2023-02-11T23:41:32.169Z,3.99
2023-02-11T23:44:00.650Z,4.03
2023-02-11T23:46:28.146Z,4.05
2023-02-11T23:48:56.015Z,4.01
2023-02-11T23:51:24.003Z,3.99
2023-02-11T23:53:52.101Z,3.93
2023-02-11T23:56:24.612Z,3.94
2023-02-11T23:58:53.473Z,3.91
